createdAt,value
2019-02-27T00:00:29.697Z,19.05
2019-02-27T00:03:01.521Z,16.82
2019-02-27T00:05:31.667Z,19.12
2019-02-27T00:08:01.909Z,18.82
2019-02-27T00:10:32.355Z,22.17
2019-02-27T00:13:02.805Z,23.30
2019-02-27T00:15:33.101Z,23.35
2019-02-27T00:18:03.276Z,23.10
2019-02-27T00:20:36.624Z,23.20
2019-02-27T00:23:05.472Z,23.35
2019-02-27T00:25:36.686Z,23.45
2019-02-27T00:28:06.925Z,23.50
2019-02-27T00:30:38.202Z,26.05
2019-02-27T00:33:08.856Z,20.92
2019-02-27T00:35:39.628Z,23.90
2019-02-27T00:38:11.090Z,23.47
2019-02-27T00:40:41.244Z,25.20
2019-02-27T00:43:12.421Z,24.32
2019-02-27T00:45:42.892Z,20.57
2019-02-27T00:48:13.130Z,22.90
2019-02-27T00:50:43.629Z,21.65
2019-02-27T00:53:14.210Z,22.70
2019-02-27T00:55:44.807Z,22.90
2019-02-27T00:58:16.079Z,20.43
2019-02-27T01:00:46.229Z,20.95
2019-02-27T01:03:16.313Z,21.70
2019-02-27T01:05:46.547Z,21.65
2019-02-27T01:08:16.823Z,22.00
2019-02-27T01:10:47.363Z,22.15
2019-02-27T01:13:17.588Z,21.42
2019-02-27T01:15:47.864Z,23.55
2019-02-27T01:18:18.074Z,22.50
2019-02-27T01:20:48.667Z,21.62
2019-02-27T01:23:18.906Z,22.02
2019-02-27T01:25:49.414Z,22.20
2019-02-27T01:28:19.950Z,21.30
2019-02-27T01:30:50.099Z,22.48
2019-02-27T01:33:20.315Z,20.92
2019-02-27T01:35:52.063Z,21.82
2019-02-27T01:38:22.265Z,21.37
2019-02-27T01:40:52.582Z,20.90
2019-02-27T01:43:22.665Z,17.45
2019-02-27T01:45:54.292Z,17.25
2019-02-27T01:48:25.088Z,17.70
2019-02-27T01:50:55.832Z,17.40
2019-02-27T01:53:26.222Z,16.52
2019-02-27T01:55:56.983Z,16.62
2019-02-27T01:58:27.604Z,17.27
2019-02-27T02:00:58.156Z,17.90
2019-02-27T02:03:28.382Z,16.73
2019-02-27T02:05:59.785Z,17.62
2019-02-27T02:08:30.037Z,18.62
2019-02-27T02:11:01.452Z,19.85
2019-02-27T02:13:38.374Z,18.90
2019-02-27T02:16:35.817Z,18.90
2019-02-27T02:19:30.222Z,17.07
2019-02-27T02:22:14.118Z,18.07
2019-02-27T02:25:02.102Z,15.93
2019-02-27T02:27:50.283Z,16.27
2019-02-27T02:30:41.481Z,14.45
2019-02-27T02:33:29.157Z,10.93
2019-02-27T02:36:07.190Z,11.03
2019-02-27T02:38:46.235Z,12.47
2019-02-27T02:41:38.657Z,11.25
2019-02-27T02:44:21.006Z,10.88
2019-02-27T02:46:58.961Z,11.08
2019-02-27T02:49:46.498Z,9.45
2019-02-27T02:52:41.631Z,10.30
2019-02-27T02:55:22.011Z,10.03
2019-02-27T02:58:16.787Z,9.10
2019-02-27T03:01:02.118Z,10.23
2019-02-27T03:03:53.614Z,10.13
2019-02-27T03:06:35.104Z,13.43
2019-02-27T03:09:30.366Z,14.53
2019-02-27T03:12:17.585Z,9.58
2019-02-27T03:14:54.202Z,8.98
2019-02-27T03:17:30.527Z,9.33
2019-02-27T03:20:23.264Z,9.65
2019-02-27T03:23:18.747Z,9.35
2019-02-27T03:26:04.032Z,8.75
2019-02-27T03:28:58.233Z,7.25
2019-02-27T03:31:57.528Z,7.37
2019-02-27T03:34:48.218Z,7.05
2019-02-27T03:37:26.320Z,6.55
2019-02-27T03:40:22.112Z,5.80
2019-02-27T03:43:10.237Z,4.87
2019-02-27T03:46:09.184Z,4.55
2019-02-27T03:48:53.979Z,4.22
2019-02-27T03:51:36.307Z,2.85
2019-02-27T03:54:22.186Z,3.20
2019-02-27T03:57:10.241Z,2.30
2019-02-27T04:00:19.328Z,2.52
2019-02-27T04:03:17.038Z,2.42
2019-02-27T04:06:07.584Z,2.45
2019-02-27T04:08:57.547Z,2.70
2019-02-27T04:11:27.697Z,2.50
2019-02-27T04:14:03.373Z,2.67
2019-02-27T04:16:30.490Z,2.22
2019-02-27T04:19:04.728Z,2.12
2019-02-27T04:21:33.001Z,2.08
2019-02-27T04:24:03.138Z,2.58
2019-02-27T04:26:33.344Z,4.15
2019-02-27T04:29:04.425Z,4.30
2019-02-27T04:31:35.274Z,5.90
2019-02-27T04:34:05.848Z,6.37
2019-02-27T04:36:35.995Z,6.53
2019-02-27T04:39:07.726Z,7.12
2019-02-27T04:41:38.456Z,7.62
2019-02-27T04:44:08.600Z,7.97
2019-02-27T04:46:38.688Z,9.38
2019-02-27T04:49:09.153Z,9.85
2019-02-27T04:51:39.335Z,8.75
2019-02-27T04:54:09.875Z,9.30
2019-02-27T04:56:40.302Z,10.23
2019-02-27T04:59:10.445Z,8.95
2019-02-27T05:01:40.951Z,9.93
2019-02-27T05:04:10.961Z,9.80
2019-02-27T05:06:41.610Z,9.88
2019-02-27T05:09:12.737Z,9.38
2019-02-27T05:11:47.233Z,7.87
2019-02-27T05:14:15.217Z,8.35
2019-02-27T05:16:47.177Z,7.85
2019-02-27T05:19:17.487Z,7.47
2019-02-27T05:21:52.172Z,7.42
2019-02-27T05:24:19.712Z,7.45
2019-02-27T05:26:49.863Z,8.25
2019-02-27T05:29:20.032Z,7.17
2019-02-27T05:31:53.159Z,7.95
2019-02-27T05:34:22.437Z,8.75
2019-02-27T05:36:52.675Z,8.03
2019-02-27T05:39:22.758Z,8.15
2019-02-27T05:41:52.908Z,7.87
2019-02-27T05:44:23.062Z,8.15
2019-02-27T05:46:53.146Z,7.53
2019-02-27T05:49:26.661Z,7.22
2019-02-27T05:51:55.474Z,8.45
2019-02-27T05:54:25.578Z,7.33
2019-02-27T05:56:55.725Z,7.12
2019-02-27T05:59:29.155Z,6.60
2019-02-27T06:01:57.660Z,7.05
2019-02-27T06:04:27.808Z,6.80
2019-02-27T06:06:57.895Z,6.67
2019-02-27T06:09:28.130Z,7.55
2019-02-27T06:11:58.748Z,7.70
2019-02-27T06:14:28.875Z,7.00
2019-02-27T06:16:59.042Z,6.47
2019-02-27T06:19:30.584Z,7.40
2019-02-27T06:22:00.835Z,8.15
2019-02-27T06:24:30.980Z,7.40
2019-02-27T06:27:01.416Z,7.33
2019-02-27T06:29:31.604Z,7.80
2019-02-27T06:32:01.819Z,6.83
2019-02-27T06:34:32.002Z,6.85
2019-02-27T06:37:02.161Z,7.62
2019-02-27T06:39:34.343Z,7.83
2019-02-27T06:42:04.206Z,9.38
2019-02-27T06:44:36.588Z,8.75
2019-02-27T06:47:07.196Z,7.50
2019-02-27T06:49:37.365Z,8.18
2019-02-27T06:52:09.204Z,8.00
2019-02-27T06:54:39.237Z,9.00
2019-02-27T06:57:09.386Z,8.23
2019-02-27T06:59:39.822Z,8.68
2019-02-27T07:02:09.949Z,7.58
2019-02-27T07:04:40.286Z,7.40
2019-02-27T07:07:10.538Z,7.97
2019-02-27T07:09:43.150Z,6.45
2019-02-27T07:12:12.878Z,5.53
2019-02-27T07:14:43.137Z,5.83
2019-02-27T07:17:14.549Z,5.53
2019-02-27T07:19:47.278Z,7.85
2019-02-27T07:22:16.838Z,8.40
2019-02-27T07:24:47.267Z,10.30
2019-02-27T07:27:17.490Z,11.88
2019-02-27T07:29:47.905Z,11.43
2019-02-27T07:32:18.052Z,11.12
2019-02-27T07:34:49.724Z,12.25
2019-02-27T07:37:19.782Z,11.25
2019-02-27T07:39:49.966Z,12.63
2019-02-27T07:42:21.476Z,15.40
2019-02-27T07:44:51.593Z,17.65
2019-02-27T07:47:21.744Z,16.60
2019-02-27T07:49:52.248Z,18.35
2019-02-27T07:52:22.468Z,18.57
2019-02-27T07:54:52.484Z,22.10
2019-02-27T07:57:22.654Z,25.27
2019-02-27T07:59:53.142Z,25.43
2019-02-27T08:02:23.291Z,26.23
2019-02-27T08:04:54.563Z,30.05
2019-02-27T08:07:25.013Z,30.48
2019-02-27T08:09:55.093Z,31.93
2019-02-27T08:12:25.444Z,33.58
2019-02-27T08:14:55.516Z,33.25
2019-02-27T08:17:26.401Z,34.38
2019-02-27T08:19:56.761Z,36.38
2019-02-27T08:22:26.937Z,35.58
2019-02-27T08:24:57.091Z,35.03
2019-02-27T08:27:27.189Z,37.00
2019-02-27T08:29:57.404Z,37.65
2019-02-27T08:32:27.489Z,36.10
2019-02-27T08:34:57.650Z,36.15
2019-02-27T08:37:27.753Z,36.15
2019-02-27T08:39:57.845Z,37.55
2019-02-27T08:42:27.864Z,38.05
2019-02-27T08:44:57.907Z,37.45
2019-02-27T08:47:28.105Z,39.98
2019-02-27T08:49:58.630Z,39.67
2019-02-27T08:52:29.102Z,40.88
2019-02-27T08:54:59.327Z,41.02
2019-02-27T08:57:29.406Z,40.08
2019-02-27T08:59:59.623Z,39.95
2019-02-27T09:02:30.018Z,40.28
2019-02-27T09:05:00.283Z,40.43
2019-02-27T09:07:30.340Z,41.13
2019-02-27T09:10:00.880Z,43.28
2019-02-27T09:12:31.339Z,43.30
2019-02-27T09:15:01.553Z,44.85
2019-02-27T09:17:32.168Z,43.83
2019-02-27T09:20:02.325Z,43.35
2019-02-27T09:22:33.875Z,42.03
2019-02-27T09:25:06.811Z,44.23
2019-02-27T09:27:37.048Z,43.92
2019-02-27T09:30:13.000Z,44.60
2019-02-27T09:32:46.063Z,44.65
2019-02-27T09:35:15.800Z,43.28
2019-02-27T09:37:48.324Z,45.43
2019-02-27T09:40:25.301Z,43.28
2019-02-27T09:42:55.481Z,43.38
2019-02-27T09:45:34.830Z,41.05
2019-02-27T09:48:05.968Z,39.88
2019-02-27T09:50:48.356Z,39.40
2019-02-27T09:53:18.637Z,37.28
2019-02-27T09:55:53.449Z,40.28
2019-02-27T09:58:22.542Z,41.05
2019-02-27T10:01:12.708Z,39.67
2019-02-27T10:03:43.552Z,38.48
2019-02-27T10:06:13.645Z,36.33
2019-02-27T10:08:43.801Z,37.33
2019-02-27T10:11:13.934Z,36.48
2019-02-27T10:13:46.062Z,38.73
2019-02-27T10:16:16.224Z,41.70
2019-02-27T10:18:46.290Z,41.95
2019-02-27T10:21:16.438Z,39.13
2019-02-27T10:23:46.751Z,38.35
2019-02-27T10:26:19.527Z,37.67
2019-02-27T10:28:48.931Z,39.23
2019-02-27T10:31:19.016Z,39.92
2019-02-27T10:33:49.522Z,38.00
2019-02-27T10:36:19.678Z,38.20
2019-02-27T10:38:50.214Z,39.73
2019-02-27T10:41:20.501Z,40.38
2019-02-27T10:43:50.589Z,41.28
2019-02-27T10:46:23.470Z,39.92
2019-02-27T10:48:52.633Z,38.00
2019-02-27T10:51:23.211Z,39.50
2019-02-27T10:53:53.355Z,38.80
2019-02-27T10:56:24.241Z,37.08
2019-02-27T10:58:55.089Z,34.85
2019-02-27T11:01:25.313Z,33.92
2019-02-27T11:03:55.505Z,34.73
2019-02-27T11:06:33.680Z,33.18
2019-02-27T11:08:57.802Z,32.13
2019-02-27T11:11:27.956Z,33.65
2019-02-27T11:13:58.186Z,31.87
2019-02-27T11:16:29.453Z,28.95
2019-02-27T11:18:59.608Z,30.95
2019-02-27T11:21:30.881Z,31.25
2019-02-27T11:24:00.967Z,28.42
2019-02-27T11:26:33.338Z,29.95
2019-02-27T11:29:02.875Z,29.20
2019-02-27T11:31:33.133Z,30.25
2019-02-27T11:34:05.048Z,28.27
2019-02-27T11:36:39.072Z,29.05
2019-02-27T11:39:08.229Z,29.45
2019-02-27T11:41:39.468Z,29.00
2019-02-27T11:44:13.948Z,29.50
2019-02-27T11:46:41.366Z,32.73
2019-02-27T11:49:11.578Z,31.77
2019-02-27T11:51:41.729Z,34.33
2019-02-27T11:54:11.822Z,34.13
2019-02-27T11:56:42.374Z,30.00
2019-02-27T11:59:13.042Z,26.02
2019-02-27T12:01:43.706Z,27.37
2019-02-27T12:04:13.870Z,26.55
2019-02-27T12:06:44.038Z,27.10
2019-02-27T12:09:14.415Z,29.85
2019-02-27T12:11:48.297Z,28.73
2019-02-27T12:14:16.315Z,27.95
2019-02-27T12:16:48.559Z,27.90
2019-02-27T12:19:18.540Z,28.70
2019-02-27T12:21:48.758Z,32.63
2019-02-27T12:24:19.531Z,31.25
2019-02-27T12:26:49.726Z,29.92
2019-02-27T12:29:20.067Z,28.95
2019-02-27T12:31:50.275Z,28.40
2019-02-27T12:34:21.478Z,27.13
2019-02-27T12:36:52.568Z,29.32
2019-02-27T12:39:23.725Z,27.35
2019-02-27T12:41:54.194Z,27.32
2019-02-27T12:44:24.352Z,28.27
2019-02-27T12:46:54.441Z,26.42
2019-02-27T12:49:24.548Z,27.05
2019-02-27T12:51:54.622Z,24.70
2019-02-27T12:54:26.874Z,26.50
2019-02-27T12:56:56.700Z,28.00
2019-02-27T12:59:26.950Z,27.22
2019-02-27T13:01:57.039Z,27.05
2019-02-27T13:04:27.201Z,25.50
2019-02-27T13:06:57.442Z,27.98
2019-02-27T13:09:27.925Z,27.17
2019-02-27T13:11:58.452Z,25.35
2019-02-27T13:14:32.984Z,22.37
2019-02-27T13:17:00.419Z,22.80
2019-02-27T13:19:30.515Z,23.27
2019-02-27T13:22:00.994Z,26.55
2019-02-27T13:24:31.158Z,20.55
2019-02-27T13:27:01.712Z,21.77
2019-02-27T13:29:32.944Z,18.17
2019-02-27T13:32:03.165Z,18.50
2019-02-27T13:34:33.435Z,22.17
2019-02-27T13:37:03.508Z,21.93
2019-02-27T13:39:33.662Z,19.25
2019-02-27T13:42:03.897Z,20.40
2019-02-27T13:44:35.314Z,20.88
2019-02-27T13:47:05.492Z,20.27
2019-02-27T13:49:36.128Z,22.93
2019-02-27T13:52:06.306Z,22.62
2019-02-27T13:54:38.168Z,17.00
2019-02-27T13:57:08.444Z,15.80
2019-02-27T13:59:38.818Z,16.70
2019-02-27T14:02:11.317Z,21.77
2019-02-27T14:04:41.102Z,20.10
2019-02-27T14:07:11.252Z,21.05
2019-02-27T14:09:42.220Z,22.50
2019-02-27T14:12:12.387Z,21.75
2019-02-27T14:14:42.527Z,21.80
2019-02-27T14:17:12.768Z,21.70
2019-02-27T14:19:43.891Z,20.77
2019-02-27T14:22:13.958Z,21.73
2019-02-27T14:24:44.162Z,16.75
2019-02-27T14:27:15.239Z,16.00
2019-02-27T14:29:46.498Z,14.25
2019-02-27T14:32:16.611Z,17.30
2019-02-27T14:34:47.180Z,18.98
2019-02-27T14:37:17.247Z,19.02
2019-02-27T14:39:48.716Z,18.05
2019-02-27T14:42:20.575Z,16.27
2019-02-27T14:44:50.617Z,17.35
2019-02-27T14:47:20.890Z,12.63
2019-02-27T14:49:51.116Z,16.82
2019-02-27T14:52:21.262Z,14.53
2019-02-27T14:54:51.883Z,15.58
2019-02-27T14:57:22.113Z,17.23
2019-02-27T14:59:52.149Z,16.25
2019-02-27T15:02:22.943Z,15.75
2019-02-27T15:04:53.205Z,15.95
2019-02-27T15:07:23.401Z,15.95
2019-02-27T15:09:53.549Z,16.05
2019-02-27T15:12:24.240Z,16.80
2019-02-27T15:14:54.306Z,15.55
2019-02-27T15:17:24.710Z,15.58
2019-02-27T15:19:54.876Z,15.18
2019-02-27T15:22:26.087Z,18.05
2019-02-27T15:24:56.811Z,18.42
2019-02-27T15:27:27.239Z,18.07
2019-02-27T15:29:57.666Z,17.82
2019-02-27T15:32:29.343Z,17.75
2019-02-27T15:34:59.950Z,18.05
2019-02-27T15:37:30.190Z,18.42
2019-02-27T15:40:00.597Z,19.48
2019-02-27T15:42:31.122Z,19.35
2019-02-27T15:45:01.263Z,18.50
2019-02-27T15:47:33.728Z,18.62
2019-02-27T15:50:05.092Z,20.08
2019-02-27T15:52:38.175Z,19.82
2019-02-27T15:55:09.808Z,18.25
2019-02-27T15:57:39.905Z,19.85
2019-02-27T16:00:21.393Z,19.75
2019-02-27T16:02:52.111Z,22.05
2019-02-27T16:05:22.328Z,22.15
2019-02-27T16:07:52.561Z,22.15
2019-02-27T16:10:27.457Z,22.17
2019-02-27T16:13:00.984Z,21.55
2019-02-27T16:15:30.117Z,21.75
2019-02-27T16:18:04.400Z,21.62
2019-02-27T16:20:32.124Z,22.75
2019-02-27T16:23:05.136Z,22.52
2019-02-27T16:25:34.096Z,22.22
2019-02-27T16:28:05.805Z,22.32
2019-02-27T16:30:37.161Z,21.55
2019-02-27T16:33:07.512Z,19.67
2019-02-27T16:35:41.461Z,19.82
2019-02-27T16:38:09.408Z,19.62
2019-02-27T16:40:40.029Z,18.50
2019-02-27T16:43:10.312Z,17.98
2019-02-27T16:45:41.958Z,18.30
2019-02-27T16:48:12.063Z,19.67
2019-02-27T16:50:42.220Z,19.48
2019-02-27T16:53:16.189Z,17.25
2019-02-27T16:55:44.144Z,17.95
2019-02-27T16:58:14.308Z,18.15
2019-02-27T17:00:44.393Z,17.80
2019-02-27T17:03:14.531Z,16.50
2019-02-27T17:05:44.691Z,16.42
2019-02-27T17:08:14.802Z,17.07
2019-02-27T17:10:45.348Z,16.15
2019-02-27T17:13:15.629Z,17.52
2019-02-27T17:15:45.774Z,16.05
2019-02-27T17:18:15.965Z,17.65
2019-02-27T17:20:47.278Z,16.15
2019-02-27T17:23:17.550Z,17.07
2019-02-27T17:25:47.623Z,16.00
2019-02-27T17:28:17.789Z,18.75
2019-02-27T17:30:47.943Z,17.42
2019-02-27T17:33:17.947Z,19.30
2019-02-27T17:35:48.045Z,17.65
2019-02-27T17:38:18.503Z,19.30
2019-02-27T17:40:49.763Z,20.00
2019-02-27T17:43:19.774Z,19.65
2019-02-27T17:45:50.416Z,19.10
2019-02-27T17:48:20.479Z,19.32
2019-02-27T17:50:50.660Z,21.62
2019-02-27T17:53:22.942Z,28.32
2019-02-27T17:55:52.665Z,25.95
2019-02-27T17:58:22.905Z,24.67
2019-02-27T18:00:54.633Z,27.15
2019-02-27T18:03:25.043Z,24.65
2019-02-27T18:05:56.378Z,22.48
2019-02-27T18:08:27.485Z,26.12
2019-02-27T18:10:57.647Z,23.45
2019-02-27T18:13:27.900Z,23.90
2019-02-27T18:15:58.385Z,24.15
2019-02-27T18:18:28.557Z,23.57
2019-02-27T18:20:59.463Z,24.60
2019-02-27T18:23:30.452Z,25.68
2019-02-27T18:26:00.558Z,30.17
2019-02-27T18:28:32.947Z,26.48
2019-02-27T18:31:02.816Z,29.63
2019-02-27T18:33:33.336Z,30.25
2019-02-27T18:36:04.786Z,31.90
2019-02-27T18:38:35.710Z,27.98
2019-02-27T18:41:06.139Z,28.90
2019-02-27T18:43:36.361Z,28.57
2019-02-27T18:46:06.544Z,27.27
2019-02-27T18:48:36.774Z,29.12
2019-02-27T18:51:06.879Z,27.82
2019-02-27T18:53:37.097Z,27.77
2019-02-27T18:56:07.319Z,29.18
2019-02-27T18:58:37.792Z,29.98
2019-02-27T19:01:09.912Z,27.10
2019-02-27T19:03:39.971Z,26.45
2019-02-27T19:06:12.083Z,25.45
2019-02-27T19:08:42.056Z,24.55
2019-02-27T19:11:12.876Z,24.50
2019-02-27T19:13:44.191Z,22.62
2019-02-27T19:16:17.399Z,24.12
2019-02-27T19:18:46.965Z,24.50
2019-02-27T19:21:17.131Z,24.72
2019-02-27T19:23:49.509Z,25.57
2019-02-27T19:26:20.340Z,26.12
2019-02-27T19:28:50.606Z,27.37
2019-02-27T19:31:20.764Z,25.05
2019-02-27T19:33:50.878Z,24.82
2019-02-27T19:36:36.531Z,25.70
2019-02-27T19:39:07.397Z,25.12
2019-02-27T19:41:39.789Z,24.52
2019-02-27T19:44:10.170Z,21.35
2019-02-27T19:46:44.699Z,22.35
2019-02-27T19:49:13.617Z,23.80
2019-02-27T19:51:45.067Z,21.42
2019-02-27T19:54:18.467Z,22.48
2019-02-27T19:56:47.390Z,21.10
2019-02-27T19:59:18.684Z,19.37
2019-02-27T20:01:49.276Z,21.57
2019-02-27T20:04:19.600Z,21.65
2019-02-27T20:06:51.351Z,21.57
2019-02-27T20:09:21.949Z,23.05
2019-02-27T20:11:52.233Z,19.90
2019-02-27T20:14:22.455Z,22.73
2019-02-27T20:16:55.206Z,22.42
2019-02-27T20:19:28.465Z,23.52
2019-02-27T20:21:58.525Z,19.37
2019-02-27T20:24:28.503Z,20.68
2019-02-27T20:26:59.780Z,22.07
2019-02-27T20:29:30.384Z,21.68
2019-02-27T20:32:01.833Z,20.30
2019-02-27T20:34:32.261Z,21.60
2019-02-27T20:37:05.936Z,21.23
2019-02-27T20:39:36.068Z,23.55
2019-02-27T20:42:06.808Z,23.50
2019-02-27T20:44:38.026Z,24.37
2019-02-27T20:47:08.900Z,23.27
2019-02-27T20:49:39.277Z,24.32
2019-02-27T20:52:14.555Z,24.52
2019-02-27T20:57:12.432Z,21.37
2019-02-27T20:59:42.759Z,22.87
2019-02-27T21:02:13.110Z,23.92
2019-02-27T21:04:43.427Z,24.75
2019-02-27T21:07:22.004Z,22.27
2019-02-27T21:09:45.930Z,20.85
2019-02-27T21:12:17.272Z,21.33
2019-02-27T21:14:47.976Z,19.77
2019-02-27T21:17:21.075Z,19.15
2019-02-27T21:19:52.442Z,20.43
2019-02-27T21:22:25.249Z,20.45
2019-02-27T21:24:55.028Z,19.67
2019-02-27T21:27:25.353Z,20.75
2019-02-27T21:29:57.723Z,20.02
2019-02-27T21:32:29.588Z,20.00
2019-02-27T21:34:59.959Z,21.25
2019-02-27T21:37:30.784Z,19.37
2019-02-27T21:40:03.231Z,20.97
2019-02-27T21:42:34.086Z,19.80
2019-02-27T21:45:07.233Z,21.35
2019-02-27T21:47:37.574Z,21.62
2019-02-27T21:50:11.004Z,20.97
2019-02-27T21:52:41.361Z,21.87
2019-02-27T21:55:13.653Z,21.40
2019-02-27T21:57:44.157Z,21.55
2019-02-27T22:00:29.761Z,21.48
2019-02-27T22:03:03.691Z,21.77
2019-02-27T22:05:32.036Z,24.25
2019-02-27T22:08:05.446Z,22.62
2019-02-27T22:10:34.461Z,23.02
2019-02-27T22:13:09.351Z,25.27
2019-02-27T22:15:36.619Z,26.23
2019-02-27T22:18:08.326Z,25.37
2019-02-27T22:20:38.762Z,27.37
2019-02-27T22:23:08.989Z,27.17
2019-02-27T22:25:39.223Z,25.02
2019-02-27T22:28:09.884Z,25.77
2019-02-27T22:30:40.153Z,26.75
2019-02-27T22:33:10.453Z,27.22
2019-02-27T22:35:40.626Z,26.75
2019-02-27T22:38:10.849Z,25.72
2019-02-27T22:40:41.411Z,26.33
2019-02-27T22:43:11.610Z,25.95
2019-02-27T22:45:43.954Z,27.77
2019-02-27T22:48:13.819Z,28.20
2019-02-27T22:50:44.026Z,27.00
2019-02-27T22:53:14.223Z,28.15
2019-02-27T22:55:45.410Z,22.27
2019-02-27T22:58:15.554Z,22.20
2019-02-27T23:00:53.021Z,27.05
2019-02-27T23:03:33.609Z,25.65
2019-02-27T23:06:04.209Z,26.65
2019-02-27T23:08:34.605Z,26.77
2019-02-27T23:11:05.087Z,23.77
2019-02-27T23:13:35.464Z,24.63
2019-02-27T23:16:06.026Z,27.60
2019-02-27T23:18:37.353Z,26.87
2019-02-27T23:21:08.212Z,24.02
2019-02-27T23:23:38.851Z,25.30
2019-02-27T23:26:09.474Z,25.43
2019-02-27T23:28:39.741Z,25.97
2019-02-27T23:31:10.022Z,26.48
2019-02-27T23:33:40.640Z,26.25
2019-02-27T23:36:11.415Z,25.68
2019-02-27T23:38:41.588Z,26.48
2019-02-27T23:41:11.888Z,24.43
2019-02-27T23:43:42.108Z,25.43
2019-02-27T23:46:12.310Z,24.47
2019-02-27T23:48:42.604Z,27.22
2019-02-27T23:51:15.823Z,24.55
2019-02-27T23:53:44.878Z,24.10
2019-02-27T23:56:19.296Z,26.57
2019-02-27T23:58:47.143Z,25.25
